sensor_id;sensor_type;location;lat;lon;timestamp;P1;durP1;ratioP1;P2;durP2;ratioP2
9322;SDS011;4700;48.822;9.270;2023-06-10T00:02:15;40.13;;;38.30;;
9322;SDS011;4700;48.822;9.270;2023-06-10T00:05:01;32.23;;;30.63;;
9322;SDS011;4700;48.822;9.270;2023-06-10T00:07:48;36.80;;;34.90;;
9322;SDS011;4700;48.822;9.270;2023-06-10T00:10:36;36.73;;;34.80;;
9322;SDS011;4700;48.822;9.270;2023-06-10T00:13:23;37.07;;;35.40;;
9322;SDS011;4700;48.822;9.270;2023-06-10T00:16:10;39.77;;;37.97;;
9322;SDS011;4700;48.822;9.270;2023-06-10T00:18:56;44.30;;;42.37;;
9322;SDS011;4700;48.822;9.270;2023-06-10T00:21:44;41.77;;;39.90;;
9322;SDS011;4700;48.822;9.270;2023-06-10T00:24:30;45.93;;;43.87;;
9322;SDS011;4700;48.822;9.270;2023-06-10T00:27:15;52.67;;;50.20;;
9322;SDS011;4700;48.822;9.270;2023-06-10T00:30:02;45.60;;;43.60;;
9322;SDS011;4700;48.822;9.270;2023-06-10T00:32:51;58.30;;;55.73;;
9322;SDS011;4700;48.822;9.270;2023-06-10T00:35:37;51.97;;;49.57;;
9322;SDS011;4700;48.822;9.270;2023-06-10T00:38:23;51.83;;;49.30;;
9322;SDS011;4700;48.822;9.270;2023-06-10T00:41:09;64.97;;;61.83;;
9322;SDS011;4700;48.822;9.270;2023-06-10T00:43:54;57.30;;;54.40;;
9322;SDS011;4700;48.822;9.270;2023-06-10T00:46:40;69.80;;;66.57;;
9322;SDS011;4700;48.822;9.270;2023-06-10T00:49:28;68.10;;;65.17;;
9322;SDS011;4700;48.822;9.270;2023-06-10T00:52:13;56.13;;;53.47;;
9322;SDS011;4700;48.822;9.270;2023-06-10T00:55:01;57.27;;;54.53;;
9322;SDS011;4700;48.822;9.270;2023-06-10T00:57:46;62.93;;;60.30;;
9322;SDS011;4700;48.822;9.270;2023-06-10T01:00:33;65.30;;;62.47;;
9322;SDS011;4700;48.822;9.270;2023-06-10T01:03:19;56.80;;;54.33;;
9322;SDS011;4700;48.822;9.270;2023-06-10T01:06:13;68.00;;;65.10;;
9322;SDS011;4700;48.822;9.270;2023-06-10T01:09:06;56.70;;;54.17;;
9322;SDS011;4700;48.822;9.270;2023-06-10T01:12:02;54.67;;;52.27;;
9322;SDS011;4700;48.822;9.270;2023-06-10T01:14:55;82.20;;;78.80;;
9322;SDS011;4700;48.822;9.270;2023-06-10T01:17:53;48.07;;;45.97;;
9322;SDS011;4700;48.822;9.270;2023-06-10T01:20:41;54.03;;;51.77;;
9322;SDS011;4700;48.822;9.270;2023-06-10T01:23:34;64.07;;;61.33;;
9322;SDS011;4700;48.822;9.270;2023-06-10T01:26:19;62.20;;;59.50;;
9322;SDS011;4700;48.822;9.270;2023-06-10T01:29:11;63.57;;;60.80;;
9322;SDS011;4700;48.822;9.270;2023-06-10T01:32:03;75.87;;;72.60;;
9322;SDS011;4700;48.822;9.270;2023-06-10T01:34:52;66.27;;;63.53;;
9322;SDS011;4700;48.822;9.270;2023-06-10T01:37:40;70.73;;;67.67;;
9322;SDS011;4700;48.822;9.270;2023-06-10T01:40:32;68.83;;;65.73;;
9322;SDS011;4700;48.822;9.270;2023-06-10T01:43:19;66.10;;;63.30;;
9322;SDS011;4700;48.822;9.270;2023-06-10T01:46:05;65.40;;;62.63;;
9322;SDS011;4700;48.822;9.270;2023-06-10T01:48:51;62.97;;;60.23;;
9322;SDS011;4700;48.822;9.270;2023-06-10T01:51:37;63.97;;;61.27;;
9322;SDS011;4700;48.822;9.270;2023-06-10T01:54:22;57.90;;;55.20;;
9322;SDS011;4700;48.822;9.270;2023-06-10T01:57:09;73.37;;;70.20;;
9322;SDS011;4700;48.822;9.270;2023-06-10T01:59:55;82.80;;;78.33;;
9322;SDS011;4700;48.822;9.270;2023-06-10T02:02:40;73.23;;;70.03;;
9322;SDS011;4700;48.822;9.270;2023-06-10T02:05:26;62.77;;;60.13;;
9322;SDS011;4700;48.822;9.270;2023-06-10T02:08:12;73.87;;;70.90;;
9322;SDS011;4700;48.822;9.270;2023-06-10T02:10:58;84.77;;;81.37;;
9322;SDS011;4700;48.822;9.270;2023-06-10T02:13:45;96.37;;;92.57;;
9322;SDS011;4700;48.822;9.270;2023-06-10T02:16:31;108.53;;;103.90;;
9322;SDS011;4700;48.822;9.270;2023-06-10T02:19:16;91.90;;;88.07;;
9322;SDS011;4700;48.822;9.270;2023-06-10T02:22:02;86.43;;;82.80;;
9322;SDS011;4700;48.822;9.270;2023-06-10T02:24:49;85.80;;;82.30;;
9322;SDS011;4700;48.822;9.270;2023-06-10T02:27:34;85.17;;;81.63;;
9322;SDS011;4700;48.822;9.270;2023-06-10T02:30:21;82.27;;;78.83;;
9322;SDS011;4700;48.822;9.270;2023-06-10T02:33:09;90.70;;;87.07;;
9322;SDS011;4700;48.822;9.270;2023-06-10T02:35:55;96.00;;;92.00;;
9322;SDS011;4700;48.822;9.270;2023-06-10T02:38:41;95.63;;;91.60;;
9322;SDS011;4700;48.822;9.270;2023-06-10T02:41:27;108.43;;;103.37;;
9322;SDS011;4700;48.822;9.270;2023-06-10T02:44:12;105.80;;;101.47;;
9322;SDS011;4700;48.822;9.270;2023-06-10T02:46:59;112.77;;;107.50;;
9322;SDS011;4700;48.822;9.270;2023-06-10T02:49:45;101.03;;;96.90;;
9322;SDS011;4700;48.822;9.270;2023-06-10T02:52:30;96.10;;;91.90;;
9322;SDS011;4700;48.822;9.270;2023-06-10T02:55:16;108.73;;;104.23;;
9322;SDS011;4700;48.822;9.270;2023-06-10T02:58:02;101.87;;;97.67;;
9322;SDS011;4700;48.822;9.270;2023-06-10T03:00:47;112.47;;;107.83;;
9322;SDS011;4700;48.822;9.270;2023-06-10T03:03:35;118.53;;;113.40;;
9322;SDS011;4700;48.822;9.270;2023-06-10T03:06:24;128.07;;;122.90;;
9322;SDS011;4700;48.822;9.270;2023-06-10T03:09:10;116.80;;;111.93;;
9322;SDS011;4700;48.822;9.270;2023-06-10T03:11:57;120.37;;;115.27;;
9322;SDS011;4700;48.822;9.270;2023-06-10T03:14:44;107.67;;;103.30;;
9322;SDS011;4700;48.822;9.270;2023-06-10T03:17:29;108.57;;;103.97;;
9322;SDS011;4700;48.822;9.270;2023-06-10T03:20:17;96.10;;;92.00;;
9322;SDS011;4700;48.822;9.270;2023-06-10T03:23:03;101.00;;;96.63;;
9322;SDS011;4700;48.822;9.270;2023-06-10T03:25:50;107.23;;;102.83;;
9322;SDS011;4700;48.822;9.270;2023-06-10T03:28:36;107.53;;;102.77;;
9322;SDS011;4700;48.822;9.270;2023-06-10T03:31:22;130.63;;;125.07;;
9322;SDS011;4700;48.822;9.270;2023-06-10T03:34:08;137.37;;;131.40;;
9322;SDS011;4700;48.822;9.270;2023-06-10T03:36:55;164.40;;;156.93;;
9322;SDS011;4700;48.822;9.270;2023-06-10T03:39:41;170.87;;;163.40;;
9322;SDS011;4700;48.822;9.270;2023-06-10T03:42:27;194.20;;;185.97;;
9322;SDS011;4700;48.822;9.270;2023-06-10T03:45:13;170.53;;;163.20;;
9322;SDS011;4700;48.822;9.270;2023-06-10T03:47:58;172.10;;;164.77;;
9322;SDS011;4700;48.822;9.270;2023-06-10T03:50:44;172.83;;;165.43;;
9322;SDS011;4700;48.822;9.270;2023-06-10T03:53:32;160.40;;;153.53;;
9322;SDS011;4700;48.822;9.270;2023-06-10T03:56:18;186.57;;;178.67;;
9322;SDS011;4700;48.822;9.270;2023-06-10T03:59:04;182.27;;;174.23;;
9322;SDS011;4700;48.822;9.270;2023-06-10T04:01:50;178.37;;;170.50;;
9322;SDS011;4700;48.822;9.270;2023-06-10T04:04:35;157.70;;;150.77;;
9322;SDS011;4700;48.822;9.270;2023-06-10T04:07:21;157.93;;;151.30;;
9322;SDS011;4700;48.822;9.270;2023-06-10T04:10:09;171.17;;;163.90;;
9322;SDS011;4700;48.822;9.270;2023-06-10T04:12:58;176.00;;;168.50;;
9322;SDS011;4700;48.822;9.270;2023-06-10T04:15:45;160.43;;;153.43;;
9322;SDS011;4700;48.822;9.270;2023-06-10T04:18:32;155.57;;;148.80;;
9322;SDS011;4700;48.822;9.270;2023-06-10T04:21:17;173.87;;;165.87;;
9322;SDS011;4700;48.822;9.270;2023-06-10T04:24:03;179.40;;;171.70;;
9322;SDS011;4700;48.822;9.270;2023-06-10T04:26:52;176.60;;;169.00;;
9322;SDS011;4700;48.822;9.270;2023-06-10T04:29:41;186.77;;;178.93;;
9322;SDS011;4700;48.822;9.270;2023-06-10T04:32:28;163.60;;;156.43;;
9322;SDS011;4700;48.822;9.270;2023-06-10T04:35:14;149.10;;;142.50;;
9322;SDS011;4700;48.822;9.270;2023-06-10T04:38:00;173.00;;;165.47;;
9322;SDS011;4700;48.822;9.270;2023-06-10T04:40:47;190.90;;;182.40;;
9322;SDS011;4700;48.822;9.270;2023-06-10T04:43:34;174.03;;;166.67;;
9322;SDS011;4700;48.822;9.270;2023-06-10T04:46:20;162.70;;;155.17;;
9322;SDS011;4700;48.822;9.270;2023-06-10T04:49:06;164.43;;;156.93;;
9322;SDS011;4700;48.822;9.270;2023-06-10T04:51:55;156.47;;;149.57;;
9322;SDS011;4700;48.822;9.270;2023-06-10T04:54:40;137.27;;;131.23;;
9322;SDS011;4700;48.822;9.270;2023-06-10T04:57:27;132.17;;;125.97;;
9322;SDS011;4700;48.822;9.270;2023-06-10T05:00:14;131.10;;;125.43;;
9322;SDS011;4700;48.822;9.270;2023-06-10T05:03:00;121.17;;;115.67;;
9322;SDS011;4700;48.822;9.270;2023-06-10T05:05:46;132.43;;;126.07;;
9322;SDS011;4700;48.822;9.270;2023-06-10T05:08:32;119.97;;;114.97;;
9322;SDS011;4700;48.822;9.270;2023-06-10T05:11:18;121.03;;;115.20;;
9322;SDS011;4700;48.822;9.270;2023-06-10T05:14:04;127.70;;;121.97;;
9322;SDS011;4700;48.822;9.270;2023-06-10T05:16:51;129.10;;;123.30;;
9322;SDS011;4700;48.822;9.270;2023-06-10T05:19:36;115.43;;;110.17;;
9322;SDS011;4700;48.822;9.270;2023-06-10T05:22:22;107.30;;;102.67;;
9322;SDS011;4700;48.822;9.270;2023-06-10T05:25:08;108.33;;;103.53;;
9322;SDS011;4700;48.822;9.270;2023-06-10T05:27:54;107.90;;;102.20;;
9322;SDS011;4700;48.822;9.270;2023-06-10T05:30:39;100.13;;;93.60;;
9322;SDS011;4700;48.822;9.270;2023-06-10T05:33:26;77.53;;;72.47;;
9322;SDS011;4700;48.822;9.270;2023-06-10T05:36:13;60.93;;;58.13;;
9322;SDS011;4700;48.822;9.270;2023-06-10T05:38:58;42.73;;;40.83;;
9322;SDS011;4700;48.822;9.270;2023-06-10T05:41:45;28.77;;;27.50;;
9322;SDS011;4700;48.822;9.270;2023-06-10T05:44:31;36.17;;;34.10;;
9322;SDS011;4700;48.822;9.270;2023-06-10T05:47:18;33.47;;;31.57;;
9322;SDS011;4700;48.822;9.270;2023-06-10T05:50:05;28.73;;;27.37;;
9322;SDS011;4700;48.822;9.270;2023-06-10T05:52:52;30.17;;;28.63;;
9322;SDS011;4700;48.822;9.270;2023-06-10T05:55:38;34.50;;;32.50;;
9322;SDS011;4700;48.822;9.270;2023-06-10T05:58:24;33.73;;;31.40;;
9322;SDS011;4700;48.822;9.270;2023-06-10T06:01:10;24.03;;;22.50;;
9322;SDS011;4700;48.822;9.270;2023-06-10T06:03:56;32.97;;;30.97;;
9322;SDS011;4700;48.822;9.270;2023-06-10T06:06:43;23.60;;;22.33;;
9322;SDS011;4700;48.822;9.270;2023-06-10T06:09:29;31.67;;;29.70;;
9322;SDS011;4700;48.822;9.270;2023-06-10T06:12:15;25.70;;;24.33;;
9322;SDS011;4700;48.822;9.270;2023-06-10T06:15:01;28.00;;;26.37;;
9322;SDS011;4700;48.822;9.270;2023-06-10T06:17:47;22.37;;;21.07;;
9322;SDS011;4700;48.822;9.270;2023-06-10T06:20:36;23.60;;;22.30;;
9322;SDS011;4700;48.822;9.270;2023-06-10T06:23:23;27.17;;;25.67;;
9322;SDS011;4700;48.822;9.270;2023-06-10T06:26:08;21.80;;;20.57;;
9322;SDS011;4700;48.822;9.270;2023-06-10T06:28:54;32.57;;;30.93;;
9322;SDS011;4700;48.822;9.270;2023-06-10T06:31:39;29.97;;;28.33;;
9322;SDS011;4700;48.822;9.270;2023-06-10T06:34:25;33.43;;;31.73;;
9322;SDS011;4700;48.822;9.270;2023-06-10T06:37:11;25.43;;;24.03;;
9322;SDS011;4700;48.822;9.270;2023-06-10T06:39:58;21.70;;;20.10;;
9322;SDS011;4700;48.822;9.270;2023-06-10T06:42:44;15.00;;;14.00;;
9322;SDS011;4700;48.822;9.270;2023-06-10T06:45:32;14.30;;;13.10;;
9322;SDS011;4700;48.822;9.270;2023-06-10T06:48:18;9.87;;;9.10;;
9322;SDS011;4700;48.822;9.270;2023-06-10T06:51:04;10.00;;;9.20;;
9322;SDS011;4700;48.822;9.270;2023-06-10T06:53:50;7.20;;;6.60;;
9322;SDS011;4700;48.822;9.270;2023-06-10T06:56:39;7.73;;;7.17;;
9322;SDS011;4700;48.822;9.270;2023-06-10T06:59:25;7.80;;;5.73;;
9322;SDS011;4700;48.822;9.270;2023-06-10T07:02:10;7.80;;;5.63;;
9322;SDS011;4700;48.822;9.270;2023-06-10T07:04:56;7.13;;;6.43;;
9322;SDS011;4700;48.822;9.270;2023-06-10T07:07:44;7.03;;;6.33;;
9322;SDS011;4700;48.822;9.270;2023-06-10T07:10:30;6.40;;;5.90;;
9322;SDS011;4700;48.822;9.270;2023-06-10T07:13:17;7.63;;;6.60;;
9322;SDS011;4700;48.822;9.270;2023-06-10T07:16:03;8.80;;;6.33;;
9322;SDS011;4700;48.822;9.270;2023-06-10T07:18:49;5.77;;;5.27;;
9322;SDS011;4700;48.822;9.270;2023-06-10T07:21:34;14.50;;;10.43;;
9322;SDS011;4700;48.822;9.270;2023-06-10T07:24:21;11.90;;;7.73;;
9322;SDS011;4700;48.822;9.270;2023-06-10T07:27:07;5.93;;;5.43;;
9322;SDS011;4700;48.822;9.270;2023-06-10T07:29:58;6.93;;;6.27;;
9322;SDS011;4700;48.822;9.270;2023-06-10T07:32:44;22.53;;;7.37;;
9322;SDS011;4700;48.822;9.270;2023-06-10T07:35:30;8.43;;;6.67;;
9322;SDS011;4700;48.822;9.270;2023-06-10T07:38:16;7.43;;;6.60;;
9322;SDS011;4700;48.822;9.270;2023-06-10T07:41:02;6.00;;;5.50;;
9322;SDS011;4700;48.822;9.270;2023-06-10T07:43:48;8.33;;;6.70;;
9322;SDS011;4700;48.822;9.270;2023-06-10T07:46:39;6.43;;;5.77;;
9322;SDS011;4700;48.822;9.270;2023-06-10T07:49:25;11.60;;;7.33;;
9322;SDS011;4700;48.822;9.270;2023-06-10T07:52:11;6.27;;;5.77;;
9322;SDS011;4700;48.822;9.270;2023-06-10T07:54:57;7.70;;;7.00;;
9322;SDS011;4700;48.822;9.270;2023-06-10T07:57:43;10.57;;;9.33;;
9322;SDS011;4700;48.822;9.270;2023-06-10T08:00:29;8.63;;;7.80;;
9322;SDS011;4700;48.822;9.270;2023-06-10T08:03:16;15.90;;;13.00;;
9322;SDS011;4700;48.822;9.270;2023-06-10T08:06:02;10.57;;;9.60;;
9322;SDS011;4700;48.822;9.270;2023-06-10T08:08:48;8.43;;;7.83;;
9322;SDS011;4700;48.822;9.270;2023-06-10T08:11:33;15.13;;;14.13;;
9322;SDS011;4700;48.822;9.270;2023-06-10T08:14:19;12.80;;;11.90;;
9322;SDS011;4700;48.822;9.270;2023-06-10T08:17:05;13.47;;;12.63;;
9322;SDS011;4700;48.822;9.270;2023-06-10T08:19:52;20.27;;;19.17;;
9322;SDS011;4700;48.822;9.270;2023-06-10T08:22:37;23.63;;;22.13;;
9322;SDS011;4700;48.822;9.270;2023-06-10T08:25:23;22.97;;;21.63;;
9322;SDS011;4700;48.822;9.270;2023-06-10T08:28:09;17.93;;;17.03;;
9322;SDS011;4700;48.822;9.270;2023-06-10T08:30:57;22.37;;;20.93;;
9322;SDS011;4700;48.822;9.270;2023-06-10T08:33:29;18.07;;;16.80;;
9322;SDS011;4700;48.822;9.270;2023-06-10T08:36:16;15.33;;;14.43;;
9322;SDS011;4700;48.822;9.270;2023-06-10T08:39:02;24.53;;;23.13;;
9322;SDS011;4700;48.822;9.270;2023-06-10T08:41:53;22.70;;;21.60;;
9322;SDS011;4700;48.822;9.270;2023-06-10T08:44:50;22.67;;;21.83;;
9322;SDS011;4700;48.822;9.270;2023-06-10T08:47:39;38.87;;;36.27;;
9322;SDS011;4700;48.822;9.270;2023-06-10T08:50:28;19.90;;;18.90;;
9322;SDS011;4700;48.822;9.270;2023-06-10T08:53:18;22.07;;;21.00;;
9322;SDS011;4700;48.822;9.270;2023-06-10T08:56:04;22.77;;;21.27;;
9322;SDS011;4700;48.822;9.270;2023-06-10T08:58:51;20.03;;;18.53;;
9322;SDS011;4700;48.822;9.270;2023-06-10T09:01:40;21.70;;;20.77;;
9322;SDS011;4700;48.822;9.270;2023-06-10T09:04:26;21.37;;;20.10;;
9322;SDS011;4700;48.822;9.270;2023-06-10T09:07:12;14.57;;;13.73;;
9322;SDS011;4700;48.822;9.270;2023-06-10T09:10:01;16.47;;;15.63;;
9322;SDS011;4700;48.822;9.270;2023-06-10T09:12:50;23.13;;;21.87;;
9322;SDS011;4700;48.822;9.270;2023-06-10T09:15:36;22.03;;;20.50;;
9322;SDS011;4700;48.822;9.270;2023-06-10T09:18:24;19.67;;;18.47;;
9322;SDS011;4700;48.822;9.270;2023-06-10T09:21:09;23.50;;;22.03;;
9322;SDS011;4700;48.822;9.270;2023-06-10T09:23:55;16.63;;;15.10;;
9322;SDS011;4700;48.822;9.270;2023-06-10T09:26:43;23.03;;;21.73;;
9322;SDS011;4700;48.822;9.270;2023-06-10T09:29:29;25.17;;;23.67;;
9322;SDS011;4700;48.822;9.270;2023-06-10T09:32:15;21.13;;;20.23;;
9322;SDS011;4700;48.822;9.270;2023-06-10T09:35:03;26.80;;;25.13;;
9322;SDS011;4700;48.822;9.270;2023-06-10T09:37:54;23.03;;;21.80;;
9322;SDS011;4700;48.822;9.270;2023-06-10T09:40:48;17.30;;;16.40;;
9322;SDS011;4700;48.822;9.270;2023-06-10T09:43:40;18.50;;;17.20;;
9322;SDS011;4700;48.822;9.270;2023-06-10T09:46:30;19.30;;;17.73;;
9322;SDS011;4700;48.822;9.270;2023-06-10T09:49:16;15.80;;;14.73;;
9322;SDS011;4700;48.822;9.270;2023-06-10T09:52:02;23.27;;;21.67;;
9322;SDS011;4700;48.822;9.270;2023-06-10T09:54:51;19.67;;;18.50;;
9322;SDS011;4700;48.822;9.270;2023-06-10T09:57:37;26.97;;;25.10;;
9322;SDS011;4700;48.822;9.270;2023-06-10T10:00:26;29.10;;;26.73;;
9322;SDS011;4700;48.822;9.270;2023-06-10T10:03:12;20.53;;;19.03;;
9322;SDS011;4700;48.822;9.270;2023-06-10T10:06:07;22.00;;;20.30;;
9322;SDS011;4700;48.822;9.270;2023-06-10T10:08:56;20.47;;;19.17;;
9322;SDS011;4700;48.822;9.270;2023-06-10T10:11:42;20.20;;;18.70;;
9322;SDS011;4700;48.822;9.270;2023-06-10T10:14:28;22.17;;;21.13;;
9322;SDS011;4700;48.822;9.270;2023-06-10T10:17:22;18.37;;;17.50;;
9322;SDS011;4700;48.822;9.270;2023-06-10T10:20:09;21.70;;;20.57;;
9322;SDS011;4700;48.822;9.270;2023-06-10T10:22:59;18.70;;;17.80;;
9322;SDS011;4700;48.822;9.270;2023-06-10T10:25:51;21.50;;;20.07;;
9322;SDS011;4700;48.822;9.270;2023-06-10T10:28:41;19.87;;;18.67;;
9322;SDS011;4700;48.822;9.270;2023-06-10T10:34:04;17.00;;;16.03;;
9322;SDS011;4700;48.822;9.270;2023-06-10T10:36:52;16.63;;;15.83;;
9322;SDS011;4700;48.822;9.270;2023-06-10T10:39:38;17.43;;;15.93;;
9322;SDS011;4700;48.822;9.270;2023-06-10T10:42:24;19.17;;;18.07;;
9322;SDS011;4700;48.822;9.270;2023-06-10T10:45:11;16.33;;;15.53;;
9322;SDS011;4700;48.822;9.270;2023-06-10T10:47:57;20.90;;;19.67;;
9322;SDS011;4700;48.822;9.270;2023-06-10T10:50:45;17.17;;;16.00;;
9322;SDS011;4700;48.822;9.270;2023-06-10T10:53:41;19.80;;;18.83;;
9322;SDS011;4700;48.822;9.270;2023-06-10T10:56:28;16.97;;;16.00;;
9322;SDS011;4700;48.822;9.270;2023-06-10T10:59:14;17.30;;;16.27;;
9322;SDS011;4700;48.822;9.270;2023-06-10T11:02:03;14.17;;;13.20;;
9322;SDS011;4700;48.822;9.270;2023-06-10T11:04:49;12.57;;;11.87;;
9322;SDS011;4700;48.822;9.270;2023-06-10T11:07:37;14.60;;;13.50;;
9322;SDS011;4700;48.822;9.270;2023-06-10T11:10:28;11.80;;;11.00;;
9322;SDS011;4700;48.822;9.270;2023-06-10T11:13:15;12.67;;;11.40;;
9322;SDS011;4700;48.822;9.270;2023-06-10T11:16:03;10.77;;;10.13;;
9322;SDS011;4700;48.822;9.270;2023-06-10T11:18:54;11.17;;;10.03;;
9322;SDS011;4700;48.822;9.270;2023-06-10T11:21:59;11.13;;;10.53;;
9322;SDS011;4700;48.822;9.270;2023-06-10T11:24:49;16.50;;;15.10;;
9322;SDS011;4700;48.822;9.270;2023-06-10T11:27:36;13.33;;;12.60;;
9322;SDS011;4700;48.822;9.270;2023-06-10T11:30:25;12.03;;;11.30;;
9322;SDS011;4700;48.822;9.270;2023-06-10T11:33:13;12.97;;;12.23;;
9322;SDS011;4700;48.822;9.270;2023-06-10T11:36:01;11.80;;;11.10;;
9322;SDS011;4700;48.822;9.270;2023-06-10T11:38:53;10.40;;;9.63;;
9322;SDS011;4700;48.822;9.270;2023-06-10T11:41:42;13.50;;;12.23;;
9322;SDS011;4700;48.822;9.270;2023-06-10T11:44:28;12.27;;;11.60;;
9322;SDS011;4700;48.822;9.270;2023-06-10T11:47:16;14.07;;;13.30;;
9322;SDS011;4700;48.822;9.270;2023-06-10T11:50:02;15.83;;;14.90;;
9322;SDS011;4700;48.822;9.270;2023-06-10T11:52:48;15.20;;;14.40;;
9322;SDS011;4700;48.822;9.270;2023-06-10T11:55:41;16.20;;;15.07;;
9322;SDS011;4700;48.822;9.270;2023-06-10T11:58:28;15.53;;;14.63;;
9322;SDS011;4700;48.822;9.270;2023-06-10T12:01:18;14.97;;;14.30;;
9322;SDS011;4700;48.822;9.270;2023-06-10T12:04:06;13.57;;;12.87;;
9322;SDS011;4700;48.822;9.270;2023-06-10T12:06:53;11.10;;;10.30;;
9322;SDS011;4700;48.822;9.270;2023-06-10T12:09:40;10.43;;;9.87;;
9322;SDS011;4700;48.822;9.270;2023-06-10T12:12:26;9.70;;;9.10;;
9322;SDS011;4700;48.822;9.270;2023-06-10T12:15:22;10.63;;;9.87;;
9322;SDS011;4700;48.822;9.270;2023-06-10T12:18:09;10.10;;;9.60;;
9322;SDS011;4700;48.822;9.270;2023-06-10T12:21:01;12.20;;;11.40;;
9322;SDS011;4700;48.822;9.270;2023-06-10T12:24:04;10.00;;;9.40;;
9322;SDS011;4700;48.822;9.270;2023-06-10T12:26:54;10.00;;;9.30;;
9322;SDS011;4700;48.822;9.270;2023-06-10T12:29:50;9.33;;;8.80;;
9322;SDS011;4700;48.822;9.270;2023-06-10T12:32:40;11.20;;;10.50;;
9322;SDS011;4700;48.822;9.270;2023-06-10T12:35:27;10.30;;;9.60;;
9322;SDS011;4700;48.822;9.270;2023-06-10T12:38:13;9.13;;;8.50;;
9322;SDS011;4700;48.822;9.270;2023-06-10T12:41:01;8.40;;;7.90;;
9322;SDS011;4700;48.822;9.270;2023-06-10T12:43:47;7.97;;;7.47;;
9322;SDS011;4700;48.822;9.270;2023-06-10T12:46:35;9.40;;;8.80;;
9322;SDS011;4700;48.822;9.270;2023-06-10T12:49:23;8.23;;;7.80;;
9322;SDS011;4700;48.822;9.270;2023-06-10T12:52:10;8.67;;;8.13;;
9322;SDS011;4700;48.822;9.270;2023-06-10T12:54:55;9.83;;;9.10;;
9322;SDS011;4700;48.822;9.270;2023-06-10T12:57:48;8.43;;;7.70;;
9322;SDS011;4700;48.822;9.270;2023-06-10T13:00:34;13.90;;;13.00;;
9322;SDS011;4700;48.822;9.270;2023-06-10T13:03:20;11.93;;;11.03;;
9322;SDS011;4700;48.822;9.270;2023-06-10T13:06:07;9.20;;;8.60;;
9322;SDS011;4700;48.822;9.270;2023-06-10T13:08:52;10.33;;;9.90;;
9322;SDS011;4700;48.822;9.270;2023-06-10T13:11:38;10.40;;;9.77;;
9322;SDS011;4700;48.822;9.270;2023-06-10T13:14:26;11.13;;;10.53;;
9322;SDS011;4700;48.822;9.270;2023-06-10T13:17:12;11.57;;;10.77;;
9322;SDS011;4700;48.822;9.270;2023-06-10T13:19:57;11.20;;;10.43;;
9322;SDS011;4700;48.822;9.270;2023-06-10T13:22:45;8.60;;;8.10;;
9322;SDS011;4700;48.822;9.270;2023-06-10T13:25:31;9.60;;;8.77;;
9322;SDS011;4700;48.822;9.270;2023-06-10T13:28:17;8.30;;;7.80;;
9322;SDS011;4700;48.822;9.270;2023-06-10T13:31:03;10.50;;;9.60;;
9322;SDS011;4700;48.822;9.270;2023-06-10T13:33:49;10.47;;;9.73;;
9322;SDS011;4700;48.822;9.270;2023-06-10T13:36:35;10.40;;;9.63;;
9322;SDS011;4700;48.822;9.270;2023-06-10T13:39:22;11.60;;;10.90;;
9322;SDS011;4700;48.822;9.270;2023-06-10T13:42:08;12.23;;;11.43;;
9322;SDS011;4700;48.822;9.270;2023-06-10T13:44:53;9.60;;;9.10;;
9322;SDS011;4700;48.822;9.270;2023-06-10T13:47:40;10.40;;;9.60;;
9322;SDS011;4700;48.822;9.270;2023-06-10T13:50:26;10.43;;;9.80;;
9322;SDS011;4700;48.822;9.270;2023-06-10T13:53:11;7.77;;;7.30;;
9322;SDS011;4700;48.822;9.270;2023-06-10T13:55:59;8.90;;;8.10;;
9322;SDS011;4700;48.822;9.270;2023-06-10T13:58:44;8.60;;;7.90;;
9322;SDS011;4700;48.822;9.270;2023-06-10T14:01:30;8.97;;;8.40;;
9322;SDS011;4700;48.822;9.270;2023-06-10T14:04:16;8.60;;;7.73;;
9322;SDS011;4700;48.822;9.270;2023-06-10T14:07:01;8.03;;;7.63;;
9322;SDS011;4700;48.822;9.270;2023-06-10T14:09:47;7.70;;;7.30;;
9322;SDS011;4700;48.822;9.270;2023-06-10T14:12:34;6.73;;;6.30;;
9322;SDS011;4700;48.822;9.270;2023-06-10T14:15:20;6.93;;;6.53;;
9322;SDS011;4700;48.822;9.270;2023-06-10T14:18:09;7.20;;;6.80;;
9322;SDS011;4700;48.822;9.270;2023-06-10T14:20:54;7.47;;;6.87;;
9322;SDS011;4700;48.822;9.270;2023-06-10T14:23:40;8.37;;;7.83;;
9322;SDS011;4700;48.822;9.270;2023-06-10T14:26:27;8.40;;;7.80;;
9322;SDS011;4700;48.822;9.270;2023-06-10T14:29:14;8.33;;;7.70;;
9322;SDS011;4700;48.822;9.270;2023-06-10T14:32:01;8.97;;;8.43;;
9322;SDS011;4700;48.822;9.270;2023-06-10T14:34:41;7.17;;;6.77;;
9322;SDS011;4700;48.822;9.270;2023-06-10T14:37:28;7.93;;;7.23;;
9322;SDS011;4700;48.822;9.270;2023-06-10T14:40:14;7.47;;;7.03;;
9322;SDS011;4700;48.822;9.270;2023-06-10T14:42:59;9.13;;;8.30;;
9322;SDS011;4700;48.822;9.270;2023-06-10T14:45:48;9.57;;;8.60;;
9322;SDS011;4700;48.822;9.270;2023-06-10T14:48:39;9.17;;;8.60;;
9322;SDS011;4700;48.822;9.270;2023-06-10T14:51:24;14.37;;;9.93;;
9322;SDS011;4700;48.822;9.270;2023-06-10T14:54:10;15.97;;;10.70;;
9322;SDS011;4700;48.822;9.270;2023-06-10T14:56:56;13.43;;;11.50;;
9322;SDS011;4700;48.822;9.270;2023-06-10T14:59:41;17.87;;;11.30;;
9322;SDS011;4700;48.822;9.270;2023-06-10T15:02:28;25.60;;;13.97;;
9322;SDS011;4700;48.822;9.270;2023-06-10T15:05:14;15.47;;;11.47;;
9322;SDS011;4700;48.822;9.270;2023-06-10T15:08:00;10.67;;;9.63;;
9322;SDS011;4700;48.822;9.270;2023-06-10T15:10:46;10.60;;;9.60;;
9322;SDS011;4700;48.822;9.270;2023-06-10T15:13:32;23.23;;;13.40;;
9322;SDS011;4700;48.822;9.270;2023-06-10T15:16:17;15.13;;;11.57;;
9322;SDS011;4700;48.822;9.270;2023-06-10T15:19:04;12.57;;;11.23;;
9322;SDS011;4700;48.822;9.270;2023-06-10T15:21:52;15.07;;;10.67;;
9322;SDS011;4700;48.822;9.270;2023-06-10T15:24:37;20.07;;;13.00;;
9322;SDS011;4700;48.822;9.270;2023-06-10T15:27:23;7.10;;;6.70;;
9322;SDS011;4700;48.822;9.270;2023-06-10T15:30:09;8.93;;;8.23;;
9322;SDS011;4700;48.822;9.270;2023-06-10T15:32:54;10.30;;;8.80;;
9322;SDS011;4700;48.822;9.270;2023-06-10T15:35:42;7.47;;;7.03;;
9322;SDS011;4700;48.822;9.270;2023-06-10T15:38:29;9.33;;;8.43;;
9322;SDS011;4700;48.822;9.270;2023-06-10T15:41:15;8.83;;;8.00;;
9322;SDS011;4700;48.822;9.270;2023-06-10T15:44:01;11.80;;;9.47;;
9322;SDS011;4700;48.822;9.270;2023-06-10T15:46:47;7.97;;;6.97;;
9322;SDS011;4700;48.822;9.270;2023-06-10T15:49:33;7.03;;;6.50;;
9322;SDS011;4700;48.822;9.270;2023-06-10T15:52:21;7.60;;;7.10;;
9322;SDS011;4700;48.822;9.270;2023-06-10T15:55:06;7.00;;;6.50;;
9322;SDS011;4700;48.822;9.270;2023-06-10T15:57:52;8.70;;;7.80;;
9322;SDS011;4700;48.822;9.270;2023-06-10T16:00:43;9.50;;;8.80;;
9322;SDS011;4700;48.822;9.270;2023-06-10T16:03:29;9.63;;;9.03;;
9322;SDS011;4700;48.822;9.270;2023-06-10T16:06:14;9.40;;;8.80;;
9322;SDS011;4700;48.822;9.270;2023-06-10T16:09:01;8.57;;;8.07;;
9322;SDS011;4700;48.822;9.270;2023-06-10T16:11:47;8.60;;;8.10;;
9322;SDS011;4700;48.822;9.270;2023-06-10T16:14:33;8.83;;;8.33;;
9322;SDS011;4700;48.822;9.270;2023-06-10T16:17:19;9.03;;;8.43;;
9322;SDS011;4700;48.822;9.270;2023-06-10T16:20:05;9.63;;;9.00;;
9322;SDS011;4700;48.822;9.270;2023-06-10T16:22:51;9.43;;;8.60;;
9322;SDS011;4700;48.822;9.270;2023-06-10T16:25:38;7.23;;;6.80;;
9322;SDS011;4700;48.822;9.270;2023-06-10T16:28:24;7.57;;;7.07;;
9322;SDS011;4700;48.822;9.270;2023-06-10T16:31:09;7.93;;;7.37;;
9322;SDS011;4700;48.822;9.270;2023-06-10T16:33:55;7.20;;;6.80;;
9322;SDS011;4700;48.822;9.270;2023-06-10T16:36:41;7.10;;;6.70;;
9322;SDS011;4700;48.822;9.270;2023-06-10T16:39:26;7.30;;;6.63;;
9322;SDS011;4700;48.822;9.270;2023-06-10T16:42:14;6.70;;;6.33;;
9322;SDS011;4700;48.822;9.270;2023-06-10T16:44:59;10.40;;;7.00;;
9322;SDS011;4700;48.822;9.270;2023-06-10T16:47:45;6.37;;;5.97;;
9322;SDS011;4700;48.822;9.270;2023-06-10T16:50:31;6.80;;;6.40;;
9322;SDS011;4700;48.822;9.270;2023-06-10T16:53:17;6.50;;;6.10;;